Terminal Aerodrome Forecast
Issued by NWS

Home | Current Version | Previous Version | Text Only | Print | Product List | Glossary On
Versions: 1 2 3 4 5 6 7 8 9 10 11 12 13 14 15 16
981
FTUS46 KSTO 090549
TAFSAC
TAF
KSAC 090549Z 0906/1006 VRB05KT 3SM BR BKN013 OVC028
      TEMPO 0906/0909 2SM -RA BR OVC008
     FM090900 15003KT 1 1/2SM BR OVC015
      TEMPO 0912/0916 1/2SM -DZ FG OVC001
     FM092100 16006KT 2SM -RA BR OVC010
     FM100000 18007KT 4SM BR OVC015
      TEMPO 1002/1006 4SM -RA OVC015=

USA.gov is the U.S. government's official web portal to all federal, state and local government web resources and services.